sensor_id;sensor_type;location;lat;lon;timestamp;temperature;humidity
37642;DHT22;23486;51.956;5.888;2023-08-06T00:01:53;16.10;99.90
37642;DHT22;23486;51.956;5.888;2023-08-06T00:04:19;16.10;99.90
37642;DHT22;23486;51.956;5.888;2023-08-06T00:06:44;16.20;99.90
37642;DHT22;23486;51.956;5.888;2023-08-06T00:09:10;16.10;99.90
37642;DHT22;23486;51.956;5.888;2023-08-06T00:11:36;16.10;99.90
37642;DHT22;23486;51.956;5.888;2023-08-06T00:14:01;16.10;99.90
37642;DHT22;23486;51.956;5.888;2023-08-06T00:16:27;16.10;99.90
37642;DHT22;23486;51.956;5.888;2023-08-06T00:18:52;16.10;99.90
37642;DHT22;23486;51.956;5.888;2023-08-06T00:21:18;16.20;99.90
37642;DHT22;23486;51.956;5.888;2023-08-06T00:23:43;16.20;99.90
37642;DHT22;23486;51.956;5.888;2023-08-06T00:26:09;16.20;99.90
37642;DHT22;23486;51.956;5.888;2023-08-06T00:28:35;16.20;99.90
37642;DHT22;23486;51.956;5.888;2023-08-06T00:31:00;16.10;99.90
37642;DHT22;23486;51.956;5.888;2023-08-06T00:33:26;16.10;99.90
37642;DHT22;23486;51.956;5.888;2023-08-06T00:35:51;16.10;99.90
37642;DHT22;23486;51.956;5.888;2023-08-06T00:38:17;16.10;99.90
37642;DHT22;23486;51.956;5.888;2023-08-06T00:40:43;16.00;99.90
37642;DHT22;23486;51.956;5.888;2023-08-06T00:43:09;16.00;99.90
37642;DHT22;23486;51.956;5.888;2023-08-06T00:45:35;16.00;99.90
37642;DHT22;23486;51.956;5.888;2023-08-06T00:48:02;16.00;99.90
37642;DHT22;23486;51.956;5.888;2023-08-06T00:50:28;16.00;99.90
37642;DHT22;23486;51.956;5.888;2023-08-06T00:52:54;16.00;99.90
37642;DHT22;23486;51.956;5.888;2023-08-06T00:55:20;15.90;99.90
37642;DHT22;23486;51.956;5.888;2023-08-06T00:57:46;15.90;99.90
37642;DHT22;23486;51.956;5.888;2023-08-06T01:00:12;15.90;99.90
37642;DHT22;23486;51.956;5.888;2023-08-06T01:02:38;15.80;99.90
37642;DHT22;23486;51.956;5.888;2023-08-06T01:05:04;15.80;99.90
37642;DHT22;23486;51.956;5.888;2023-08-06T01:10:54;15.80;99.90
37642;DHT22;23486;51.956;5.888;2023-08-06T01:13:33;15.70;99.90
37642;DHT22;23486;51.956;5.888;2023-08-06T01:16:01;15.70;99.90
37642;DHT22;23486;51.956;5.888;2023-08-06T01:18:28;15.70;99.90
37642;DHT22;23486;51.956;5.888;2023-08-06T01:20:54;15.60;99.90
37642;DHT22;23486;51.956;5.888;2023-08-06T01:23:20;15.60;99.90
37642;DHT22;23486;51.956;5.888;2023-08-06T01:30:59;15.50;99.90
37642;DHT22;23486;51.956;5.888;2023-08-06T01:33:27;15.50;99.90
37642;DHT22;23486;51.956;5.888;2023-08-06T01:35:57;15.50;99.90
37642;DHT22;23486;51.956;5.888;2023-08-06T01:38:24;15.50;99.90
37642;DHT22;23486;51.956;5.888;2023-08-06T01:40:50;15.50;99.90
37642;DHT22;23486;51.956;5.888;2023-08-06T01:43:15;15.50;99.90
37642;DHT22;23486;51.956;5.888;2023-08-06T01:45:41;15.50;99.90
37642;DHT22;23486;51.956;5.888;2023-08-06T01:48:06;15.50;99.90
37642;DHT22;23486;51.956;5.888;2023-08-06T01:50:32;15.40;99.90
37642;DHT22;23486;51.956;5.888;2023-08-06T01:52:58;15.50;99.90
37642;DHT22;23486;51.956;5.888;2023-08-06T01:55:23;15.50;99.90
37642;DHT22;23486;51.956;5.888;2023-08-06T01:57:49;15.50;99.90
37642;DHT22;23486;51.956;5.888;2023-08-06T02:00:14;15.50;99.90
37642;DHT22;23486;51.956;5.888;2023-08-06T02:02:40;15.50;99.90
37642;DHT22;23486;51.956;5.888;2023-08-06T02:05:08;15.50;99.90
37642;DHT22;23486;51.956;5.888;2023-08-06T02:07:34;15.50;99.90
37642;DHT22;23486;51.956;5.888;2023-08-06T02:09:59;15.50;99.90
37642;DHT22;23486;51.956;5.888;2023-08-06T02:12:25;15.40;99.90
37642;DHT22;23486;51.956;5.888;2023-08-06T02:14:51;15.40;99.90
37642;DHT22;23486;51.956;5.888;2023-08-06T02:17:16;15.50;99.90
37642;DHT22;23486;51.956;5.888;2023-08-06T02:19:42;15.50;99.90
37642;DHT22;23486;51.956;5.888;2023-08-06T02:22:08;15.50;99.90
37642;DHT22;23486;51.956;5.888;2023-08-06T02:24:34;15.50;99.90
37642;DHT22;23486;51.956;5.888;2023-08-06T02:26:59;15.40;99.90
37642;DHT22;23486;51.956;5.888;2023-08-06T02:29:25;15.50;99.90
37642;DHT22;23486;51.956;5.888;2023-08-06T02:31:51;15.50;99.90
37642;DHT22;23486;51.956;5.888;2023-08-06T02:34:16;15.50;99.90
37642;DHT22;23486;51.956;5.888;2023-08-06T02:36:42;15.40;99.90
37642;DHT22;23486;51.956;5.888;2023-08-06T02:39:08;15.50;99.90
37642;DHT22;23486;51.956;5.888;2023-08-06T02:41:33;15.50;99.90
37642;DHT22;23486;51.956;5.888;2023-08-06T02:43:59;15.50;99.90
37642;DHT22;23486;51.956;5.888;2023-08-06T02:46:24;15.50;99.90
37642;DHT22;23486;51.956;5.888;2023-08-06T02:48:50;15.50;99.90
37642;DHT22;23486;51.956;5.888;2023-08-06T02:51:15;15.50;99.90
37642;DHT22;23486;51.956;5.888;2023-08-06T02:53:41;15.50;99.90
37642;DHT22;23486;51.956;5.888;2023-08-06T02:56:07;15.50;99.90
37642;DHT22;23486;51.956;5.888;2023-08-06T02:58:32;15.50;99.90
37642;DHT22;23486;51.956;5.888;2023-08-06T03:01:05;15.50;99.90
37642;DHT22;23486;51.956;5.888;2023-08-06T03:03:31;15.50;99.90
37642;DHT22;23486;51.956;5.888;2023-08-06T03:05:57;15.50;99.90
37642;DHT22;23486;51.956;5.888;2023-08-06T03:08:23;15.40;99.90
37642;DHT22;23486;51.956;5.888;2023-08-06T03:10:52;15.50;99.90
37642;DHT22;23486;51.956;5.888;2023-08-06T03:13:18;15.50;99.90
37642;DHT22;23486;51.956;5.888;2023-08-06T03:15:52;15.50;99.90
37642;DHT22;23486;51.956;5.888;2023-08-06T03:18:18;15.50;99.90
37642;DHT22;23486;51.956;5.888;2023-08-06T03:20:44;15.50;99.90
37642;DHT22;23486;51.956;5.888;2023-08-06T03:23:10;15.50;99.90
37642;DHT22;23486;51.956;5.888;2023-08-06T03:25:36;15.50;99.90
37642;DHT22;23486;51.956;5.888;2023-08-06T03:28:02;15.50;99.90
37642;DHT22;23486;51.956;5.888;2023-08-06T03:30:28;15.50;99.90
37642;DHT22;23486;51.956;5.888;2023-08-06T03:32:53;15.60;99.90
37642;DHT22;23486;51.956;5.888;2023-08-06T03:35:19;15.50;99.90
37642;DHT22;23486;51.956;5.888;2023-08-06T03:37:45;15.50;99.90
37642;DHT22;23486;51.956;5.888;2023-08-06T03:40:10;15.50;99.90
37642;DHT22;23486;51.956;5.888;2023-08-06T03:42:37;15.50;99.90
37642;DHT22;23486;51.956;5.888;2023-08-06T03:45:03;15.50;99.90
37642;DHT22;23486;51.956;5.888;2023-08-06T03:47:29;15.50;99.90
37642;DHT22;23486;51.956;5.888;2023-08-06T03:49:55;15.50;99.90
37642;DHT22;23486;51.956;5.888;2023-08-06T03:52:20;15.50;99.90
37642;DHT22;23486;51.956;5.888;2023-08-06T03:54:46;15.50;99.90
37642;DHT22;23486;51.956;5.888;2023-08-06T03:57:11;15.50;99.90
37642;DHT22;23486;51.956;5.888;2023-08-06T03:59:37;15.50;99.90
37642;DHT22;23486;51.956;5.888;2023-08-06T04:02:03;15.50;99.90
37642;DHT22;23486;51.956;5.888;2023-08-06T04:04:28;15.60;99.90
37642;DHT22;23486;51.956;5.888;2023-08-06T04:06:54;15.60;99.90
37642;DHT22;23486;51.956;5.888;2023-08-06T04:09:20;15.60;99.90
37642;DHT22;23486;51.956;5.888;2023-08-06T04:11:45;15.60;99.90
37642;DHT22;23486;51.956;5.888;2023-08-06T04:14:11;15.60;99.90
37642;DHT22;23486;51.956;5.888;2023-08-06T04:16:36;15.60;99.90
37642;DHT22;23486;51.956;5.888;2023-08-06T04:19:02;15.60;99.90
37642;DHT22;23486;51.956;5.888;2023-08-06T04:21:28;15.60;99.90
37642;DHT22;23486;51.956;5.888;2023-08-06T04:23:53;15.50;99.90
37642;DHT22;23486;51.956;5.888;2023-08-06T04:26:19;15.60;99.90
37642;DHT22;23486;51.956;5.888;2023-08-06T04:28:44;15.60;99.90
37642;DHT22;23486;51.956;5.888;2023-08-06T04:31:10;15.60;99.90
37642;DHT22;23486;51.956;5.888;2023-08-06T04:33:36;15.60;99.90
37642;DHT22;23486;51.956;5.888;2023-08-06T04:36:01;15.60;99.90
37642;DHT22;23486;51.956;5.888;2023-08-06T04:38:27;15.60;99.90
37642;DHT22;23486;51.956;5.888;2023-08-06T04:40:53;15.60;99.90
37642;DHT22;23486;51.956;5.888;2023-08-06T04:43:18;15.70;99.90
37642;DHT22;23486;51.956;5.888;2023-08-06T04:45:48;15.60;99.90
37642;DHT22;23486;51.956;5.888;2023-08-06T04:48:14;15.60;99.90
37642;DHT22;23486;51.956;5.888;2023-08-06T04:50:44;15.70;99.90
37642;DHT22;23486;51.956;5.888;2023-08-06T04:53:10;15.70;99.90
37642;DHT22;23486;51.956;5.888;2023-08-06T04:55:36;15.70;99.90
37642;DHT22;23486;51.956;5.888;2023-08-06T04:58:01;15.70;99.90
37642;DHT22;23486;51.956;5.888;2023-08-06T05:00:27;15.70;99.90
37642;DHT22;23486;51.956;5.888;2023-08-06T05:02:52;15.70;99.90
37642;DHT22;23486;51.956;5.888;2023-08-06T05:05:18;15.70;99.90
37642;DHT22;23486;51.956;5.888;2023-08-06T05:07:48;15.70;99.90
37642;DHT22;23486;51.956;5.888;2023-08-06T05:10:14;15.80;99.90
37642;DHT22;23486;51.956;5.888;2023-08-06T05:12:39;15.80;99.90
37642;DHT22;23486;51.956;5.888;2023-08-06T05:15:05;15.90;99.90
37642;DHT22;23486;51.956;5.888;2023-08-06T05:17:31;15.90;99.90
37642;DHT22;23486;51.956;5.888;2023-08-06T05:19:56;16.00;99.90
37642;DHT22;23486;51.956;5.888;2023-08-06T05:22:22;16.00;99.90
37642;DHT22;23486;51.956;5.888;2023-08-06T05:24:47;16.00;99.90
37642;DHT22;23486;51.956;5.888;2023-08-06T05:27:13;16.10;99.90
37642;DHT22;23486;51.956;5.888;2023-08-06T05:29:39;16.10;99.90
37642;DHT22;23486;51.956;5.888;2023-08-06T05:32:05;16.10;99.90
37642;DHT22;23486;51.956;5.888;2023-08-06T05:34:31;16.20;99.90
37642;DHT22;23486;51.956;5.888;2023-08-06T05:36:56;16.20;99.90
37642;DHT22;23486;51.956;5.888;2023-08-06T05:39:22;16.30;99.90
37642;DHT22;23486;51.956;5.888;2023-08-06T05:41:47;16.30;99.90
37642;DHT22;23486;51.956;5.888;2023-08-06T05:44:13;16.40;99.90
37642;DHT22;23486;51.956;5.888;2023-08-06T05:46:39;16.40;99.90
37642;DHT22;23486;51.956;5.888;2023-08-06T05:49:04;16.40;99.90
37642;DHT22;23486;51.956;5.888;2023-08-06T05:51:30;16.40;99.90
37642;DHT22;23486;51.956;5.888;2023-08-06T05:53:56;16.40;99.90
37642;DHT22;23486;51.956;5.888;2023-08-06T05:56:21;16.30;99.90
37642;DHT22;23486;51.956;5.888;2023-08-06T05:58:47;16.30;99.90
37642;DHT22;23486;51.956;5.888;2023-08-06T06:01:13;16.30;99.90
37642;DHT22;23486;51.956;5.888;2023-08-06T06:03:38;16.20;99.90
37642;DHT22;23486;51.956;5.888;2023-08-06T06:06:04;16.20;99.90
37642;DHT22;23486;51.956;5.888;2023-08-06T06:08:30;16.20;99.90
37642;DHT22;23486;51.956;5.888;2023-08-06T06:10:55;16.20;99.90
37642;DHT22;23486;51.956;5.888;2023-08-06T06:13:21;16.20;99.90
37642;DHT22;23486;51.956;5.888;2023-08-06T06:15:47;16.20;99.90
37642;DHT22;23486;51.956;5.888;2023-08-06T06:18:13;16.20;99.90
37642;DHT22;23486;51.956;5.888;2023-08-06T06:20:39;16.30;99.90
37642;DHT22;23486;51.956;5.888;2023-08-06T06:23:04;16.30;99.90
37642;DHT22;23486;51.956;5.888;2023-08-06T06:25:30;16.30;99.90
37642;DHT22;23486;51.956;5.888;2023-08-06T06:27:55;16.30;99.90
37642;DHT22;23486;51.956;5.888;2023-08-06T06:30:21;16.30;99.90
37642;DHT22;23486;51.956;5.888;2023-08-06T06:32:47;16.30;99.90
37642;DHT22;23486;51.956;5.888;2023-08-06T06:35:12;16.40;99.90
37642;DHT22;23486;51.956;5.888;2023-08-06T06:37:38;16.40;99.90
37642;DHT22;23486;51.956;5.888;2023-08-06T06:40:04;16.40;99.90
37642;DHT22;23486;51.956;5.888;2023-08-06T06:42:30;16.40;99.90
37642;DHT22;23486;51.956;5.888;2023-08-06T06:44:55;16.40;99.90
37642;DHT22;23486;51.956;5.888;2023-08-06T06:47:21;16.40;99.90
37642;DHT22;23486;51.956;5.888;2023-08-06T06:49:47;16.40;99.90
37642;DHT22;23486;51.956;5.888;2023-08-06T06:52:12;16.40;99.90
37642;DHT22;23486;51.956;5.888;2023-08-06T06:54:38;16.30;99.90
37642;DHT22;23486;51.956;5.888;2023-08-06T06:57:04;16.30;99.90
37642;DHT22;23486;51.956;5.888;2023-08-06T06:59:30;16.30;99.90
37642;DHT22;23486;51.956;5.888;2023-08-06T07:01:55;16.20;99.90
37642;DHT22;23486;51.956;5.888;2023-08-06T07:04:21;16.20;99.90
37642;DHT22;23486;51.956;5.888;2023-08-06T07:06:47;16.20;99.90
37642;DHT22;23486;51.956;5.888;2023-08-06T07:09:13;16.10;99.90
37642;DHT22;23486;51.956;5.888;2023-08-06T07:11:38;16.10;99.90
37642;DHT22;23486;51.956;5.888;2023-08-06T07:14:04;16.10;99.90
37642;DHT22;23486;51.956;5.888;2023-08-06T07:16:29;16.10;99.90
37642;DHT22;23486;51.956;5.888;2023-08-06T07:18:55;16.10;99.90
37642;DHT22;23486;51.956;5.888;2023-08-06T07:21:21;16.20;99.90
37642;DHT22;23486;51.956;5.888;2023-08-06T07:23:47;16.20;99.90
37642;DHT22;23486;51.956;5.888;2023-08-06T07:26:15;16.30;99.90
37642;DHT22;23486;51.956;5.888;2023-08-06T07:28:41;16.30;99.90
37642;DHT22;23486;51.956;5.888;2023-08-06T07:31:07;16.40;99.90
37642;DHT22;23486;51.956;5.888;2023-08-06T07:33:32;16.50;99.90
37642;DHT22;23486;51.956;5.888;2023-08-06T07:35:58;16.50;99.90
37642;DHT22;23486;51.956;5.888;2023-08-06T07:38:23;16.40;99.90
37642;DHT22;23486;51.956;5.888;2023-08-06T07:40:49;16.40;99.90
37642;DHT22;23486;51.956;5.888;2023-08-06T07:43:15;16.30;99.90
37642;DHT22;23486;51.956;5.888;2023-08-06T07:45:40;16.30;99.90
37642;DHT22;23486;51.956;5.888;2023-08-06T07:48:06;16.30;99.90
37642;DHT22;23486;51.956;5.888;2023-08-06T07:50:32;16.20;99.90
37642;DHT22;23486;51.956;5.888;2023-08-06T07:52:57;16.20;99.90
37642;DHT22;23486;51.956;5.888;2023-08-06T07:55:23;16.30;99.90
37642;DHT22;23486;51.956;5.888;2023-08-06T07:57:49;16.30;99.90
37642;DHT22;23486;51.956;5.888;2023-08-06T08:00:14;16.40;99.90
37642;DHT22;23486;51.956;5.888;2023-08-06T08:02:40;16.50;99.90
37642;DHT22;23486;51.956;5.888;2023-08-06T08:05:06;16.50;99.90
37642;DHT22;23486;51.956;5.888;2023-08-06T08:07:33;16.60;99.90
37642;DHT22;23486;51.956;5.888;2023-08-06T08:09:59;16.60;99.90
37642;DHT22;23486;51.956;5.888;2023-08-06T08:12:25;16.70;99.90
37642;DHT22;23486;51.956;5.888;2023-08-06T08:14:51;16.70;99.90
37642;DHT22;23486;51.956;5.888;2023-08-06T08:17:17;16.80;99.90
37642;DHT22;23486;51.956;5.888;2023-08-06T08:19:43;16.90;99.90
37642;DHT22;23486;51.956;5.888;2023-08-06T08:22:09;17.00;99.90
37642;DHT22;23486;51.956;5.888;2023-08-06T08:24:35;17.10;99.90
37642;DHT22;23486;51.956;5.888;2023-08-06T08:27:00;17.20;99.90
37642;DHT22;23486;51.956;5.888;2023-08-06T08:29:26;17.20;99.90
37642;DHT22;23486;51.956;5.888;2023-08-06T08:31:51;17.30;99.90
37642;DHT22;23486;51.956;5.888;2023-08-06T08:34:17;17.40;99.90
37642;DHT22;23486;51.956;5.888;2023-08-06T08:36:43;17.50;99.90
37642;DHT22;23486;51.956;5.888;2023-08-06T08:39:09;17.50;99.90
37642;DHT22;23486;51.956;5.888;2023-08-06T08:41:36;17.60;99.90
37642;DHT22;23486;51.956;5.888;2023-08-06T08:44:02;17.60;99.90
37642;DHT22;23486;51.956;5.888;2023-08-06T08:46:31;17.70;99.90
37642;DHT22;23486;51.956;5.888;2023-08-06T08:48:59;17.70;99.90
37642;DHT22;23486;51.956;5.888;2023-08-06T08:51:27;17.70;99.90
37642;DHT22;23486;51.956;5.888;2023-08-06T08:53:55;17.90;99.90
37642;DHT22;23486;51.956;5.888;2023-08-06T08:56:24;17.90;99.90
37642;DHT22;23486;51.956;5.888;2023-08-06T08:58:50;17.90;99.90
37642;DHT22;23486;51.956;5.888;2023-08-06T09:01:19;17.90;99.90
37642;DHT22;23486;51.956;5.888;2023-08-06T09:03:46;17.90;99.90
37642;DHT22;23486;51.956;5.888;2023-08-06T09:06:12;17.90;99.90
37642;DHT22;23486;51.956;5.888;2023-08-06T09:08:54;18.00;99.90
37642;DHT22;23486;51.956;5.888;2023-08-06T09:11:22;17.90;99.90
37642;DHT22;23486;51.956;5.888;2023-08-06T09:13:47;18.00;99.90
37642;DHT22;23486;51.956;5.888;2023-08-06T09:16:13;18.00;99.90
37642;DHT22;23486;51.956;5.888;2023-08-06T09:18:39;18.20;99.90
37642;DHT22;23486;51.956;5.888;2023-08-06T09:21:05;18.30;99.90
37642;DHT22;23486;51.956;5.888;2023-08-06T09:23:31;18.50;99.90
37642;DHT22;23486;51.956;5.888;2023-08-06T09:25:58;18.60;99.90
37642;DHT22;23486;51.956;5.888;2023-08-06T09:28:24;18.70;99.90
37642;DHT22;23486;51.956;5.888;2023-08-06T09:30:50;18.80;99.90
37642;DHT22;23486;51.956;5.888;2023-08-06T09:33:18;18.90;99.90
37642;DHT22;23486;51.956;5.888;2023-08-06T09:35:46;18.90;99.90
37642;DHT22;23486;51.956;5.888;2023-08-06T09:38:12;18.90;99.90
37642;DHT22;23486;51.956;5.888;2023-08-06T09:40:39;18.90;99.90
37642;DHT22;23486;51.956;5.888;2023-08-06T09:43:06;18.60;99.90
37642;DHT22;23486;51.956;5.888;2023-08-06T09:45:33;18.50;99.90
37642;DHT22;23486;51.956;5.888;2023-08-06T09:48:04;18.20;99.90
37642;DHT22;23486;51.956;5.888;2023-08-06T09:50:35;18.10;99.90
37642;DHT22;23486;51.956;5.888;2023-08-06T09:53:03;17.90;99.90
37642;DHT22;23486;51.956;5.888;2023-08-06T09:55:29;17.70;99.90
37642;DHT22;23486;51.956;5.888;2023-08-06T09:57:55;17.60;99.90
37642;DHT22;23486;51.956;5.888;2023-08-06T10:00:21;17.60;99.90
37642;DHT22;23486;51.956;5.888;2023-08-06T10:02:47;17.50;99.90
37642;DHT22;23486;51.956;5.888;2023-08-06T10:05:15;17.50;99.90
37642;DHT22;23486;51.956;5.888;2023-08-06T10:07:43;17.30;99.90
37642;DHT22;23486;51.956;5.888;2023-08-06T10:10:09;17.10;99.90
37642;DHT22;23486;51.956;5.888;2023-08-06T10:12:42;16.90;99.90
37642;DHT22;23486;51.956;5.888;2023-08-06T10:15:12;16.60;99.90
37642;DHT22;23486;51.956;5.888;2023-08-06T10:17:40;16.50;99.90
37642;DHT22;23486;51.956;5.888;2023-08-06T10:20:08;16.40;99.90
37642;DHT22;23486;51.956;5.888;2023-08-06T10:22:35;16.30;99.90
37642;DHT22;23486;51.956;5.888;2023-08-06T10:25:02;16.20;99.90
37642;DHT22;23486;51.956;5.888;2023-08-06T10:27:34;16.00;99.90
37642;DHT22;23486;51.956;5.888;2023-08-06T10:32:55;15.50;99.90
37642;DHT22;23486;51.956;5.888;2023-08-06T10:35:34;15.40;99.90
37642;DHT22;23486;51.956;5.888;2023-08-06T10:38:11;15.20;99.90
37642;DHT22;23486;51.956;5.888;2023-08-06T10:40:39;15.10;99.90
37642;DHT22;23486;51.956;5.888;2023-08-06T10:43:06;15.20;99.90
37642;DHT22;23486;51.956;5.888;2023-08-06T10:45:37;15.10;99.90
37642;DHT22;23486;51.956;5.888;2023-08-06T10:48:04;15.20;99.90
37642;DHT22;23486;51.956;5.888;2023-08-06T10:50:29;15.10;99.90
37642;DHT22;23486;51.956;5.888;2023-08-06T10:52:57;15.00;99.90
37642;DHT22;23486;51.956;5.888;2023-08-06T10:55:27;15.00;99.90
37642;DHT22;23486;51.956;5.888;2023-08-06T10:57:53;14.90;99.90
37642;DHT22;23486;51.956;5.888;2023-08-06T11:00:23;14.90;99.90
37642;DHT22;23486;51.956;5.888;2023-08-06T11:02:52;14.80;99.90
37642;DHT22;23486;51.956;5.888;2023-08-06T11:05:18;14.80;99.90
37642;DHT22;23486;51.956;5.888;2023-08-06T11:07:43;14.80;99.90
37642;DHT22;23486;51.956;5.888;2023-08-06T11:10:12;14.80;99.90
37642;DHT22;23486;51.956;5.888;2023-08-06T11:12:38;14.80;99.90
37642;DHT22;23486;51.956;5.888;2023-08-06T11:15:05;14.80;99.90
37642;DHT22;23486;51.956;5.888;2023-08-06T11:17:32;14.70;99.90
37642;DHT22;23486;51.956;5.888;2023-08-06T11:20:03;14.70;99.90
37642;DHT22;23486;51.956;5.888;2023-08-06T11:22:29;14.70;99.90
37642;DHT22;23486;51.956;5.888;2023-08-06T11:24:55;14.70;99.90
37642;DHT22;23486;51.956;5.888;2023-08-06T11:27:20;14.70;99.90
37642;DHT22;23486;51.956;5.888;2023-08-06T11:29:46;14.70;99.90
37642;DHT22;23486;51.956;5.888;2023-08-06T11:32:12;14.70;99.90
37642;DHT22;23486;51.956;5.888;2023-08-06T11:34:39;14.80;99.90
37642;DHT22;23486;51.956;5.888;2023-08-06T11:37:05;14.80;99.90
37642;DHT22;23486;51.956;5.888;2023-08-06T11:39:38;14.80;99.90
37642;DHT22;23486;51.956;5.888;2023-08-06T11:42:07;14.90;99.90
37642;DHT22;23486;51.956;5.888;2023-08-06T11:44:35;14.90;99.90
37642;DHT22;23486;51.956;5.888;2023-08-06T11:47:03;14.90;99.90
37642;DHT22;23486;51.956;5.888;2023-08-06T11:52:11;14.90;99.90
37642;DHT22;23486;51.956;5.888;2023-08-06T11:54:38;14.90;99.90
37642;DHT22;23486;51.956;5.888;2023-08-06T11:57:05;14.90;99.90
37642;DHT22;23486;51.956;5.888;2023-08-06T11:59:31;14.90;99.90
37642;DHT22;23486;51.956;5.888;2023-08-06T12:01:57;14.90;99.90
37642;DHT22;23486;51.956;5.888;2023-08-06T12:04:22;14.90;99.90
37642;DHT22;23486;51.956;5.888;2023-08-06T12:06:48;14.80;99.90
37642;DHT22;23486;51.956;5.888;2023-08-06T12:09:14;14.90;99.90
37642;DHT22;23486;51.956;5.888;2023-08-06T12:11:39;14.90;99.90
37642;DHT22;23486;51.956;5.888;2023-08-06T12:14:05;14.90;99.90
37642;DHT22;23486;51.956;5.888;2023-08-06T12:16:31;14.90;99.90
37642;DHT22;23486;51.956;5.888;2023-08-06T12:18:56;14.90;99.90
37642;DHT22;23486;51.956;5.888;2023-08-06T12:21:22;14.70;99.90
37642;DHT22;23486;51.956;5.888;2023-08-06T12:23:47;14.70;99.90
37642;DHT22;23486;51.956;5.888;2023-08-06T12:26:13;14.60;99.90
37642;DHT22;23486;51.956;5.888;2023-08-06T12:28:39;14.60;99.90
37642;DHT22;23486;51.956;5.888;2023-08-06T12:31:04;14.70;99.90
37642;DHT22;23486;51.956;5.888;2023-08-06T12:33:30;14.70;99.90
37642;DHT22;23486;51.956;5.888;2023-08-06T12:35:55;14.70;99.90
37642;DHT22;23486;51.956;5.888;2023-08-06T12:38:23;14.70;99.90
37642;DHT22;23486;51.956;5.888;2023-08-06T12:40:50;14.60;99.90
37642;DHT22;23486;51.956;5.888;2023-08-06T12:43:16;14.60;99.90
37642;DHT22;23486;51.956;5.888;2023-08-06T12:45:41;14.60;99.90
37642;DHT22;23486;51.956;5.888;2023-08-06T12:48:07;14.50;99.90
37642;DHT22;23486;51.956;5.888;2023-08-06T12:50:32;14.50;99.90
37642;DHT22;23486;51.956;5.888;2023-08-06T12:52:58;14.50;99.90
37642;DHT22;23486;51.956;5.888;2023-08-06T12:55:23;14.40;99.90
37642;DHT22;23486;51.956;5.888;2023-08-06T12:57:49;14.40;99.90
37642;DHT22;23486;51.956;5.888;2023-08-06T13:00:15;14.40;99.90
37642;DHT22;23486;51.956;5.888;2023-08-06T13:02:40;14.40;99.90
37642;DHT22;23486;51.956;5.888;2023-08-06T13:05:06;14.40;99.90
37642;DHT22;23486;51.956;5.888;2023-08-06T13:07:32;14.40;99.90
37642;DHT22;23486;51.956;5.888;2023-08-06T13:09:58;14.40;99.90
37642;DHT22;23486;51.956;5.888;2023-08-06T13:12:25;14.40;99.90
37642;DHT22;23486;51.956;5.888;2023-08-06T13:14:51;14.40;99.90
37642;DHT22;23486;51.956;5.888;2023-08-06T13:17:18;14.40;99.90
37642;DHT22;23486;51.956;5.888;2023-08-06T13:19:44;14.40;99.90
37642;DHT22;23486;51.956;5.888;2023-08-06T13:22:10;14.40;99.90
37642;DHT22;23486;51.956;5.888;2023-08-06T13:24:35;14.30;99.90
37642;DHT22;23486;51.956;5.888;2023-08-06T13:27:01;14.40;99.90
37642;DHT22;23486;51.956;5.888;2023-08-06T13:29:28;14.40;99.90
37642;DHT22;23486;51.956;5.888;2023-08-06T13:31:54;14.40;99.90
37642;DHT22;23486;51.956;5.888;2023-08-06T13:34:20;14.40;99.90
37642;DHT22;23486;51.956;5.888;2023-08-06T13:36:46;14.40;99.90
37642;DHT22;23486;51.956;5.888;2023-08-06T13:39:12;14.40;99.90
37642;DHT22;23486;51.956;5.888;2023-08-06T13:41:38;14.40;99.90
37642;DHT22;23486;51.956;5.888;2023-08-06T13:44:05;14.40;99.90
37642;DHT22;23486;51.956;5.888;2023-08-06T13:46:30;14.50;99.90
37642;DHT22;23486;51.956;5.888;2023-08-06T13:48:56;14.40;99.90
37642;DHT22;23486;51.956;5.888;2023-08-06T13:51:21;14.40;99.90
37642;DHT22;23486;51.956;5.888;2023-08-06T13:53:47;14.40;99.90
37642;DHT22;23486;51.956;5.888;2023-08-06T13:56:13;14.40;99.90
37642;DHT22;23486;51.956;5.888;2023-08-06T13:58:40;14.40;99.90
37642;DHT22;23486;51.956;5.888;2023-08-06T14:01:06;14.40;99.90
37642;DHT22;23486;51.956;5.888;2023-08-06T14:03:32;14.40;99.90
37642;DHT22;23486;51.956;5.888;2023-08-06T14:05:57;14.50;99.90
37642;DHT22;23486;51.956;5.888;2023-08-06T14:08:24;14.40;99.90
37642;DHT22;23486;51.956;5.888;2023-08-06T14:10:51;14.50;99.90
37642;DHT22;23486;51.956;5.888;2023-08-06T14:13:16;14.50;99.90
37642;DHT22;23486;51.956;5.888;2023-08-06T14:15:42;14.60;99.90
37642;DHT22;23486;51.956;5.888;2023-08-06T14:18:15;14.60;99.90
37642;DHT22;23486;51.956;5.888;2023-08-06T14:20:41;14.60;99.90
37642;DHT22;23486;51.956;5.888;2023-08-06T14:23:07;14.60;99.90
37642;DHT22;23486;51.956;5.888;2023-08-06T14:25:33;14.60;99.90
37642;DHT22;23486;51.956;5.888;2023-08-06T14:27:59;14.60;99.90
37642;DHT22;23486;51.956;5.888;2023-08-06T14:30:25;14.70;99.90
37642;DHT22;23486;51.956;5.888;2023-08-06T14:32:50;14.70;99.90
37642;DHT22;23486;51.956;5.888;2023-08-06T14:35:16;14.70;99.90
37642;DHT22;23486;51.956;5.888;2023-08-06T14:37:42;14.80;99.90
37642;DHT22;23486;51.956;5.888;2023-08-06T14:40:08;14.80;99.90
37642;DHT22;23486;51.956;5.888;2023-08-06T14:42:34;14.80;99.90
37642;DHT22;23486;51.956;5.888;2023-08-06T14:44:59;14.80;99.90
37642;DHT22;23486;51.956;5.888;2023-08-06T14:47:25;14.80;99.90
37642;DHT22;23486;51.956;5.888;2023-08-06T14:49:51;14.80;99.90
37642;DHT22;23486;51.956;5.888;2023-08-06T14:52:16;14.90;99.90
37642;DHT22;23486;51.956;5.888;2023-08-06T14:54:42;14.90;99.90
37642;DHT22;23486;51.956;5.888;2023-08-06T14:57:09;14.90;99.90
37642;DHT22;23486;51.956;5.888;2023-08-06T14:59:35;14.90;99.90
37642;DHT22;23486;51.956;5.888;2023-08-06T15:02:00;15.00;99.90
37642;DHT22;23486;51.956;5.888;2023-08-06T15:04:26;15.00;99.90
37642;DHT22;23486;51.956;5.888;2023-08-06T15:06:52;15.00;99.90
37642;DHT22;23486;51.956;5.888;2023-08-06T15:09:17;15.00;99.90
37642;DHT22;23486;51.956;5.888;2023-08-06T15:11:43;15.00;99.90
37642;DHT22;23486;51.956;5.888;2023-08-06T15:14:10;15.00;99.90
37642;DHT22;23486;51.956;5.888;2023-08-06T15:16:36;15.10;99.90
37642;DHT22;23486;51.956;5.888;2023-08-06T15:19:02;15.10;99.90
37642;DHT22;23486;51.956;5.888;2023-08-06T15:21:28;15.10;99.90
37642;DHT22;23486;51.956;5.888;2023-08-06T15:23:54;15.20;99.90
37642;DHT22;23486;51.956;5.888;2023-08-06T15:26:20;15.20;99.90
37642;DHT22;23486;51.956;5.888;2023-08-06T15:28:46;15.20;99.90
37642;DHT22;23486;51.956;5.888;2023-08-06T15:31:11;15.20;99.90
37642;DHT22;23486;51.956;5.888;2023-08-06T15:33:37;15.20;99.90
37642;DHT22;23486;51.956;5.888;2023-08-06T15:36:03;15.30;99.90
37642;DHT22;23486;51.956;5.888;2023-08-06T15:38:28;15.30;99.90